Time;durP1;ratioP1;P1;durP2;ratioP2;P2;SDS_P1;SDS_P2;PMS_P1;PMS_P2;Temp;Humidity;BMP_temperature;BMP_pressure;BME280_temperature;BME280_humidity;BME280_pressure;Samples;Min_cycle;Max_cycle;Signal;HPM_P1;HPM_P2
2022/09/12 00:00:34;;;;;;;;;;;23.10;99.60;;;;;;5046046;28;19929;-62
2022/09/12 00:03:02;;;;;;;;;;;23.10;99.70;;;;;;5027085;28;19929;-62
2022/09/12 00:05:29;;;;;;;;;;;23.10;99.60;;;;;;5044167;28;19929;-62
2022/09/12 00:07:56;;;;;;;;;;;23.10;99.60;;;;;;5047953;28;19925;-62
2022/09/12 00:10:24;;;;;;;;;;;23.00;99.60;;;;;;5044886;28;19933;-60
2022/09/12 00:12:52;;;;;;;;;;;23.10;99.60;;;;;;5028454;28;19929;-62
2022/09/12 00:15:19;;;;;;;;;;;23.10;99.60;;;;;;5038238;28;19929;-62
2022/09/12 00:17:46;;;;;;;;;;;23.00;99.60;;;;;;5039857;28;19940;-62
2022/09/12 00:20:13;;;;;;;;;;;23.10;99.60;;;;;;5040251;28;19933;-60
2022/09/12 00:22:40;;;;;;;;;;;23.10;99.60;;;;;;5048201;28;20305;-64
2022/09/12 00:25:08;;;;;;;;;;;23.00;99.60;;;;;;5051008;28;19948;-62
2022/09/12 00:27:35;;;;;;;;;;;23.00;99.50;;;;;;5050530;28;19929;-61
2022/09/12 00:30:03;;;;;;;;;;;23.00;99.60;;;;;;5034435;28;19929;-62
2022/09/12 00:32:30;;;;;;;;;;;23.00;99.60;;;;;;5050310;28;19925;-62
2022/09/12 00:34:57;;;;;;;;;;;23.00;99.60;;;;;;5050976;28;19925;-63
2022/09/12 00:37:24;;;;;;;;;;;23.00;99.50;;;;;;5043154;28;19929;-62
2022/09/12 00:39:51;;;;;;;;;;;23.00;99.50;;;;;;4985006;28;1773969;-63
2022/09/12 00:42:18;;;;;;;;;;;23.00;99.50;;;;;;5050773;28;19929;-62
2022/09/12 00:44:47;;;;;;;;;;;23.00;99.50;;;;;;5047200;28;19924;-62
2022/09/12 00:47:27;;;;;;;;;;;23.00;99.50;;;;;;5041166;28;19935;-62
2022/09/12 00:50:14;;;;;;;;;;;23.00;99.50;;;;;;5045468;28;19936;-61
2022/09/12 00:52:56;;;;;;;;;;;23.00;99.50;;;;;;5041681;28;20411;-62
2022/09/12 00:55:43;;;;;;;;;;;23.00;99.50;;;;;;5044345;28;19936;-62
2022/09/12 00:58:10;;;;;;;;;;;23.00;99.50;;;;;;5046010;28;20377;-63
2022/09/12 01:00:37;;;;;;;;;;;23.00;99.50;;;;;;5045860;28;19936;-62
2022/09/12 01:03:10;;;;;;;;;;;23.00;99.50;;;;;;5041312;28;19936;-62
2022/09/12 01:05:39;;;;;;;;;;;23.00;99.50;;;;;;5045928;28;19925;-63
2022/09/12 01:08:06;;;;;;;;;;;23.00;99.50;;;;;;5034797;28;19928;-63
2022/09/12 01:10:34;;;;;;;;;;;23.00;99.50;;;;;;5048065;28;20411;-63
2022/09/12 01:13:03;;;;;;;;;;;23.00;99.50;;;;;;5047105;28;21422;-63
2022/09/12 01:15:31;;;;;;;;;;;23.00;99.50;;;;;;5049022;28;19932;-63
2022/09/12 01:18:16;;;;;;;;;;;23.00;99.50;;;;;;5041981;28;19935;-59
2022/09/12 01:20:48;;;;;;;;;;;23.00;99.50;;;;;;5043664;28;19933;-62
2022/09/12 01:23:34;;;;;;;;;;;23.00;99.50;;;;;;5030164;28;19932;-61
2022/09/12 01:26:39;;;;;;;;;;;23.00;99.50;;;;;;5048102;28;19929;-61
2022/09/12 01:29:06;;;;;;;;;;;23.00;99.50;;;;;;4987251;28;19930;-62
2022/09/12 01:31:39;;;;;;;;;;;23.00;99.50;;;;;;4991074;28;19930;-63
2022/09/12 01:34:06;;;;;;;;;;;23.00;99.50;;;;;;4988873;28;19930;-62
2022/09/12 01:36:37;;;;;;;;;;;23.00;99.40;;;;;;4980976;28;19930;-61
2022/09/12 01:39:05;;;;;;;;;;;23.00;99.50;;;;;;4981345;28;19938;-62
2022/09/12 01:41:40;;;;;;;;;;;23.00;99.50;;;;;;4973243;28;19932;-61
2022/09/12 01:44:07;;;;;;;;;;;23.00;99.40;;;;;;4983668;28;19934;-62
2022/09/12 01:46:41;;;;;;;;;;;22.90;99.40;;;;;;4990209;28;19941;-62
2022/09/12 01:49:16;;;;;;;;;;;22.90;99.40;;;;;;4985838;28;20511;-62
2022/09/12 01:51:52;;;;;;;;;;;22.90;99.40;;;;;;4987764;28;19930;-61
2022/09/12 01:54:31;;;;;;;;;;;23.00;99.40;;;;;;4974946;28;19934;-63
2022/09/12 01:57:01;;;;;;;;;;;22.90;99.40;;;;;;4987377;28;20424;-62
2022/09/12 01:59:39;;;;;;;;;;;22.90;99.40;;;;;;4999428;28;19933;-62
2022/09/12 02:02:13;;;;;;;;;;;22.90;99.40;;;;;;5047151;28;20311;-61
2022/09/12 02:04:46;;;;;;;;;;;22.90;99.40;;;;;;5040220;28;20319;-61
2022/09/12 02:07:17;;;;;;;;;;;22.90;99.40;;;;;;5043635;28;20419;-62
2022/09/12 02:09:46;;;;;;;;;;;22.90;99.40;;;;;;5040211;28;19936;-62
2022/09/12 02:12:15;;;;;;;;;;;22.90;99.30;;;;;;5045083;28;19925;-61
2022/09/12 02:14:46;;;;;;;;;;;22.90;99.40;;;;;;5042166;28;19925;-62
2022/09/12 02:17:19;;;;;;;;;;;22.90;99.30;;;;;;5044596;28;19931;-63
2022/09/12 02:19:50;;;;;;;;;;;22.90;99.30;;;;;;5046269;28;20435;-62
2022/09/12 02:22:19;;;;;;;;;;;22.90;99.30;;;;;;5043988;28;19932;-61
2022/09/12 02:24:48;;;;;;;;;;;22.90;99.30;;;;;;5039913;28;19932;-60
2022/09/12 02:27:18;;;;;;;;;;;22.90;99.30;;;;;;5043149;28;19932;-57
2022/09/12 02:29:45;;;;;;;;;;;22.90;99.30;;;;;;5043664;28;19925;-62
2022/09/12 02:32:25;;;;;;;;;;;22.90;99.30;;;;;;5047546;28;20320;-60
2022/09/12 02:34:58;;;;;;;;;;;22.90;99.30;;;;;;5022629;28;19925;-59
2022/09/12 02:37:32;;;;;;;;;;;22.90;99.30;;;;;;5029669;28;20419;-62
2022/09/12 02:40:00;;;;;;;;;;;22.90;99.30;;;;;;5046077;28;19932;-63
2022/09/12 02:42:27;;;;;;;;;;;22.90;99.30;;;;;;5042607;28;20383;-64
2022/09/12 02:44:54;;;;;;;;;;;22.90;99.30;;;;;;5049265;28;19936;-62
2022/09/12 02:47:26;;;;;;;;;;;22.90;99.30;;;;;;5047791;28;19932;-63
2022/09/12 02:49:54;;;;;;;;;;;22.90;99.20;;;;;;5050048;28;19928;-61
2022/09/12 02:52:21;;;;;;;;;;;22.90;99.30;;;;;;5040001;28;19929;-60
2022/09/12 02:54:49;;;;;;;;;;;22.90;99.30;;;;;;5046661;28;20312;-63
2022/09/12 02:57:17;;;;;;;;;;;22.80;99.20;;;;;;5040974;28;19935;-62
2022/09/12 02:59:50;;;;;;;;;;;22.80;99.20;;;;;;5041313;28;19929;-63
2022/09/12 03:02:40;;;;;;;;;;;22.90;99.20;;;;;;5047411;28;19929;-62
2022/09/12 03:05:07;;;;;;;;;;;22.80;99.30;;;;;;5031888;28;19926;-62
2022/09/12 03:07:43;;;;;;;;;;;22.80;99.30;;;;;;5050294;28;19936;-62
2022/09/12 03:10:25;;;;;;;;;;;22.80;99.50;;;;;;5045492;28;19935;-63
2022/09/12 03:13:03;;;;;;;;;;;22.80;99.30;;;;;;5048328;28;19928;-63
2022/09/12 03:15:33;;;;;;;;;;;22.80;99.30;;;;;;5030997;28;19951;-63
2022/09/12 03:18:07;;;;;;;;;;;22.80;99.20;;;;;;5045531;28;19936;-62
2022/09/12 03:20:40;;;;;;;;;;;22.80;99.30;;;;;;5032042;28;20438;-62
2022/09/12 03:23:16;;;;;;;;;;;22.80;99.30;;;;;;5029748;28;19925;-63
2022/09/12 03:25:47;;;;;;;;;;;22.80;99.30;;;;;;5041156;28;20011;-62
2022/09/12 03:28:15;;;;;;;;;;;22.80;99.30;;;;;;5044172;28;19929;-63
2022/09/12 03:30:43;;;;;;;;;;;22.80;99.30;;;;;;5049027;28;19925;-63
2022/09/12 03:33:11;;;;;;;;;;;22.80;99.30;;;;;;5046480;28;19935;-63
2022/09/12 03:35:38;;;;;;;;;;;22.80;99.40;;;;;;5047174;28;19929;-63
2022/09/12 03:38:06;;;;;;;;;;;22.80;99.30;;;;;;5027426;28;20316;-61
2022/09/12 03:40:34;;;;;;;;;;;22.80;99.30;;;;;;5041234;28;19928;-62
2022/09/12 03:43:02;;;;;;;;;;;22.80;99.30;;;;;;5049393;28;19936;-62
2022/09/12 03:45:29;;;;;;;;;;;22.80;99.30;;;;;;5048502;28;19929;-62
2022/09/12 03:47:57;;;;;;;;;;;22.80;99.30;;;;;;5044737;28;19928;-64
2022/09/12 03:50:24;;;;;;;;;;;22.80;99.20;;;;;;5048722;28;19936;-60
2022/09/12 03:52:51;;;;;;;;;;;22.80;99.10;;;;;;5055639;28;19928;-61
2022/09/12 03:55:19;;;;;;;;;;;22.80;99.10;;;;;;5055004;28;19933;-61
2022/09/12 03:57:46;;;;;;;;;;;22.80;99.10;;;;;;5052034;28;19936;-60
2022/09/12 04:00:13;;;;;;;;;;;22.80;99.20;;;;;;5051323;28;19925;-61
2022/09/12 04:02:45;;;;;;;;;;;22.80;99.20;;;;;;5046050;28;21102;-62
2022/09/12 04:05:12;;;;;;;;;;;22.80;99.10;;;;;;5047202;28;19952;-62
2022/09/12 04:07:39;;;;;;;;;;;22.80;99.30;;;;;;5048065;28;19929;-63
2022/09/12 04:10:06;;;;;;;;;;;22.80;99.20;;;;;;5048427;28;20408;-62
2022/09/12 04:12:34;;;;;;;;;;;22.70;99.00;;;;;;5038538;28;19932;-61
2022/09/12 04:15:01;;;;;;;;;;;22.70;98.80;;;;;;5047692;28;19928;-62
2022/09/12 04:17:28;;;;;;;;;;;22.70;98.30;;;;;;5048854;28;19933;-61
2022/09/12 04:19:55;;;;;;;;;;;22.60;97.90;;;;;;5049471;28;20427;-61
2022/09/12 04:22:22;;;;;;;;;;;22.70;98.00;;;;;;5042599;28;19940;-61
2022/09/12 04:24:49;;;;;;;;;;;22.70;98.00;;;;;;5030022;28;20239;-62
2022/09/12 04:27:16;;;;;;;;;;;22.70;98.10;;;;;;5051959;28;20243;-63
2022/09/12 04:29:43;;;;;;;;;;;22.70;98.10;;;;;;5047413;28;20384;-62
2022/09/12 04:32:11;;;;;;;;;;;22.70;98.20;;;;;;5047999;28;19932;-62
2022/09/12 04:34:38;;;;;;;;;;;22.70;98.20;;;;;;5048989;28;19951;-62
2022/09/12 04:37:05;;;;;;;;;;;22.60;98.20;;;;;;5041626;28;19933;-64
2022/09/12 04:39:32;;;;;;;;;;;22.60;98.30;;;;;;5046429;28;19929;-65
2022/09/12 04:41:59;;;;;;;;;;;22.60;98.20;;;;;;5044254;28;20660;-63
2022/09/12 04:44:26;;;;;;;;;;;22.60;98.20;;;;;;5041903;28;19933;-63
2022/09/12 04:46:53;;;;;;;;;;;22.60;98.30;;;;;;5042552;28;19928;-63
2022/09/12 04:49:20;;;;;;;;;;;22.60;98.30;;;;;;5046954;28;19928;-63
2022/09/12 04:51:47;;;;;;;;;;;22.60;98.30;;;;;;5041995;28;19933;-63
2022/09/12 04:54:16;;;;;;;;;;;22.60;98.30;;;;;;5045314;28;20620;-62
2022/09/12 04:56:44;;;;;;;;;;;22.60;98.30;;;;;;5027249;28;19929;-61
2022/09/12 04:59:12;;;;;;;;;;;22.60;98.30;;;;;;5030925;28;19933;-64
2022/09/12 05:01:39;;;;;;;;;;;22.60;98.30;;;;;;5048182;28;20627;-64
2022/09/12 05:04:08;;;;;;;;;;;22.60;98.30;;;;;;5040553;28;19925;-63
2022/09/12 05:06:36;;;;;;;;;;;22.60;98.30;;;;;;5045509;28;19964;-62
2022/09/12 05:09:04;;;;;;;;;;;22.60;98.40;;;;;;5048791;28;19925;-63
2022/09/12 05:11:33;;;;;;;;;;;22.60;98.30;;;;;;5043530;28;20165;-64
2022/09/12 05:14:20;;;;;;;;;;;22.60;98.30;;;;;;5030305;28;19929;-64
2022/09/12 05:16:47;;;;;;;;;;;22.60;98.30;;;;;;5028175;28;20397;-63
2022/09/12 05:19:16;;;;;;;;;;;22.60;98.30;;;;;;5045354;28;20640;-65
2022/09/12 05:21:43;;;;;;;;;;;22.60;98.30;;;;;;5050817;28;20388;-63
2022/09/12 05:24:10;;;;;;;;;;;22.60;98.30;;;;;;5048291;28;19935;-62
2022/09/12 05:26:37;;;;;;;;;;;22.60;98.30;;;;;;5031836;28;19925;-62
2022/09/12 05:29:05;;;;;;;;;;;22.60;98.30;;;;;;5045418;28;19936;-63
2022/09/12 05:31:33;;;;;;;;;;;22.60;98.30;;;;;;5050684;28;19925;-63
2022/09/12 05:34:01;;;;;;;;;;;22.60;98.30;;;;;;5028909;28;19932;-62
2022/09/12 05:36:28;;;;;;;;;;;22.60;98.30;;;;;;5044912;28;19940;-62
2022/09/12 05:38:55;;;;;;;;;;;22.60;98.30;;;;;;5032930;28;19932;-62
2022/09/12 05:41:24;;;;;;;;;;;22.60;98.30;;;;;;5046487;28;19964;-62
2022/09/12 05:43:52;;;;;;;;;;;22.60;98.30;;;;;;5049898;28;19943;-62
2022/09/12 05:46:20;;;;;;;;;;;22.60;98.20;;;;;;5028137;28;19943;-64
2022/09/12 05:48:48;;;;;;;;;;;22.60;98.20;;;;;;5052682;28;19929;-63
2022/09/12 05:51:26;;;;;;;;;;;22.60;98.20;;;;;;5047537;28;19929;-62
2022/09/12 05:53:56;;;;;;;;;;;22.60;98.20;;;;;;5047554;28;19955;-62
2022/09/12 05:56:24;;;;;;;;;;;22.60;98.40;;;;;;5044802;28;19958;-61
2022/09/12 05:58:53;;;;;;;;;;;22.60;98.20;;;;;;5029876;28;19929;-60
2022/09/12 06:01:20;;;;;;;;;;;22.60;98.20;;;;;;5028707;28;19929;-62
2022/09/12 06:03:48;;;;;;;;;;;22.60;98.20;;;;;;5030419;28;19928;-62
2022/09/12 06:06:17;;;;;;;;;;;22.60;98.20;;;;;;5043493;28;19925;-63
2022/09/12 06:08:45;;;;;;;;;;;22.60;98.20;;;;;;5041752;28;19936;-63
2022/09/12 06:11:14;;;;;;;;;;;22.60;98.20;;;;;;5026951;28;20656;-63
2022/09/12 06:13:42;;;;;;;;;;;22.60;98.20;;;;;;5044166;28;19933;-63
2022/09/12 06:16:10;;;;;;;;;;;22.60;98.10;;;;;;5041322;28;20404;-62
2022/09/12 06:18:38;;;;;;;;;;;22.60;98.10;;;;;;5030383;28;19936;-62
2022/09/12 06:21:07;;;;;;;;;;;22.60;98.10;;;;;;5045522;28;19929;-62
2022/09/12 06:23:34;;;;;;;;;;;22.60;98.10;;;;;;5045046;28;19936;-62
2022/09/12 06:26:01;;;;;;;;;;;22.50;98.10;;;;;;5049226;28;20431;-63
2022/09/12 06:28:29;;;;;;;;;;;22.60;98.10;;;;;;5059252;28;20257;-63
2022/09/12 06:31:06;;;;;;;;;;;22.60;98.10;;;;;;5046489;28;19929;-63
2022/09/12 06:33:34;;;;;;;;;;;22.60;98.10;;;;;;5038045;28;19936;-62
2022/09/12 06:36:07;;;;;;;;;;;22.50;98.10;;;;;;5033610;28;19938;-61
2022/09/12 06:38:39;;;;;;;;;;;22.60;98.10;;;;;;5025295;28;20396;-62
2022/09/12 06:41:07;;;;;;;;;;;22.50;98.10;;;;;;5049850;28;20415;-61
2022/09/12 06:43:34;;;;;;;;;;;22.50;98.10;;;;;;5046906;28;19929;-61
2022/09/12 06:46:01;;;;;;;;;;;22.50;98.00;;;;;;5042501;28;19936;-60
2022/09/12 06:48:28;;;;;;;;;;;22.60;98.00;;;;;;5050454;28;19936;-62
2022/09/12 06:50:57;;;;;;;;;;;22.50;98.00;;;;;;5052356;28;19928;-62
2022/09/12 06:53:24;;;;;;;;;;;22.50;98.10;;;;;;5050546;28;19992;-63
2022/09/12 06:55:58;;;;;;;;;;;22.60;98.10;;;;;;5047323;28;19935;-62
2022/09/12 06:58:26;;;;;;;;;;;22.60;98.10;;;;;;5046980;28;19925;-62
2022/09/12 07:01:01;;;;;;;;;;;22.60;98.10;;;;;;5051616;28;19940;-62
2022/09/12 07:03:28;;;;;;;;;;;22.60;98.30;;;;;;5051084;28;19932;-63
2022/09/12 07:05:55;;;;;;;;;;;22.60;98.10;;;;;;5033531;28;20463;-63
2022/09/12 07:08:22;;;;;;;;;;;22.70;98.10;;;;;;5045197;28;20641;-62
2022/09/12 07:10:49;;;;;;;;;;;22.60;98.00;;;;;;5047012;28;19928;-62
2022/09/12 07:13:16;;;;;;;;;;;22.60;98.10;;;;;;5031506;28;19936;-62
2022/09/12 07:15:43;;;;;;;;;;;22.70;98.10;;;;;;5047256;28;19933;-62
2022/09/12 07:18:10;;;;;;;;;;;22.70;98.10;;;;;;5044541;28;19929;-62
2022/09/12 07:20:38;;;;;;;;;;;22.70;98.10;;;;;;5050297;28;19951;-62
2022/09/12 07:23:05;;;;;;;;;;;22.70;98.10;;;;;;5049350;28;19929;-62
2022/09/12 07:25:32;;;;;;;;;;;22.70;98.10;;;;;;5050748;28;19929;-61
2022/09/12 07:27:59;;;;;;;;;;;22.70;98.10;;;;;;5050733;28;20293;-62
2022/09/12 07:30:26;;;;;;;;;;;22.70;98.10;;;;;;5045787;28;19935;-62
2022/09/12 07:32:53;;;;;;;;;;;22.70;98.10;;;;;;5049908;28;19933;-61
2022/09/12 07:35:20;;;;;;;;;;;22.70;98.10;;;;;;5050106;28;20408;-61
2022/09/12 07:37:47;;;;;;;;;;;22.70;98.10;;;;;;5044619;28;19925;-61
2022/09/12 07:40:14;;;;;;;;;;;22.70;98.10;;;;;;5049874;28;19925;-62
2022/09/12 07:42:42;;;;;;;;;;;22.70;98.10;;;;;;5047957;28;19925;-63
2022/09/12 07:45:10;;;;;;;;;;;22.70;98.10;;;;;;5045986;28;19929;-62
2022/09/12 07:47:37;;;;;;;;;;;22.70;98.10;;;;;;5030063;28;19936;-62
2022/09/12 07:50:04;;;;;;;;;;;22.70;98.10;;;;;;5031852;28;19932;-63
2022/09/12 07:52:31;;;;;;;;;;;22.70;98.10;;;;;;5043242;28;19936;-62
2022/09/12 07:54:58;;;;;;;;;;;22.70;98.10;;;;;;5050029;28;20007;-61
2022/09/12 07:57:25;;;;;;;;;;;22.70;98.10;;;;;;5036366;28;19925;-62
2022/09/12 07:59:52;;;;;;;;;;;22.70;98.10;;;;;;5042645;28;19929;-62
2022/09/12 08:02:19;;;;;;;;;;;22.80;98.10;;;;;;5046053;28;19929;-62
2022/09/12 08:04:48;;;;;;;;;;;22.80;98.10;;;;;;5039770;28;19933;-61
2022/09/12 08:07:17;;;;;;;;;;;22.80;98.10;;;;;;5029860;28;19931;-61
2022/09/12 08:09:44;;;;;;;;;;;22.80;98.10;;;;;;5049912;28;19933;-61
2022/09/12 08:12:11;;;;;;;;;;;22.80;98.10;;;;;;5047775;28;19973;-62
2022/09/12 08:14:38;;;;;;;;;;;22.80;98.10;;;;;;5044388;28;19929;-62
2022/09/12 08:17:05;;;;;;;;;;;22.80;98.10;;;;;;5046651;28;19951;-62
2022/09/12 08:19:32;;;;;;;;;;;22.80;98.10;;;;;;5031980;28;20280;-64
2022/09/12 08:21:59;;;;;;;;;;;22.80;98.20;;;;;;5049672;28;19927;-62
2022/09/12 08:24:26;;;;;;;;;;;22.80;98.10;;;;;;5046743;28;19940;-63
2022/09/12 08:26:53;;;;;;;;;;;22.80;98.10;;;;;;5051612;28;20160;-63
2022/09/12 08:29:20;;;;;;;;;;;22.80;98.10;;;;;;5034537;28;19932;-62
2022/09/12 08:31:47;;;;;;;;;;;22.80;98.10;;;;;;5046291;28;19936;-63
2022/09/12 08:34:18;;;;;;;;;;;22.80;98.10;;;;;;5049301;28;20316;-62
2022/09/12 08:36:45;;;;;;;;;;;22.80;98.10;;;;;;5030778;28;19932;-63
2022/09/12 08:39:15;;;;;;;;;;;22.80;98.10;;;;;;5046406;28;19936;-63
2022/09/12 08:41:44;;;;;;;;;;;22.80;98.10;;;;;;5033058;28;19929;-63
2022/09/12 08:44:22;;;;;;;;;;;22.80;98.00;;;;;;5049413;28;19929;-62
2022/09/12 08:46:59;;;;;;;;;;;22.80;98.00;;;;;;5043612;28;19929;-63
2022/09/12 08:49:29;;;;;;;;;;;22.90;98.00;;;;;;5028946;28;19929;-61
2022/09/12 08:51:58;;;;;;;;;;;22.90;98.00;;;;;;5042499;28;19948;-63
2022/09/12 08:54:27;;;;;;;;;;;22.90;98.00;;;;;;5048081;28;19924;-63
2022/09/12 08:56:56;;;;;;;;;;;22.90;98.00;;;;;;5044015;28;19932;-63
2022/09/12 08:59:24;;;;;;;;;;;22.90;98.00;;;;;;5045976;28;19928;-63
2022/09/12 09:01:54;;;;;;;;;;;22.80;98.00;;;;;;5043441;28;19928;-63
2022/09/12 09:04:40;;;;;;;;;;;22.90;98.00;;;;;;5045771;28;19929;-63
2022/09/12 09:07:19;;;;;;;;;;;22.90;97.90;;;;;;5048145;28;19929;-62
2022/09/12 09:09:52;;;;;;;;;;;22.90;97.90;;;;;;5039339;28;19940;-62
2022/09/12 09:12:27;;;;;;;;;;;22.90;98.00;;;;;;5042949;28;19947;-60
2022/09/12 09:15:20;;;;;;;;;;;22.90;98.00;;;;;;5026496;28;19940;-63
2022/09/12 09:17:49;;;;;;;;;;;22.90;98.00;;;;;;5038641;28;19933;-63
2022/09/12 09:20:28;;;;;;;;;;;22.90;98.00;;;;;;5045258;28;19928;-62
2022/09/12 09:23:01;;;;;;;;;;;22.90;98.00;;;;;;5026991;28;19929;-62
2022/09/12 09:25:35;;;;;;;;;;;22.90;98.00;;;;;;5047748;28;19933;-61
2022/09/12 09:28:04;;;;;;;;;;;22.90;98.00;;;;;;5043400;28;20308;-63
2022/09/12 09:30:34;;;;;;;;;;;22.90;97.90;;;;;;5043080;28;19929;-62
2022/09/12 09:33:04;;;;;;;;;;;22.90;97.90;;;;;;5048080;28;19929;-63
2022/09/12 09:35:37;;;;;;;;;;;22.90;97.90;;;;;;5033756;28;19932;-62
2022/09/12 09:38:20;;;;;;;;;;;22.90;97.90;;;;;;5047481;28;20400;-63
2022/09/12 09:40:47;;;;;;;;;;;22.90;97.90;;;;;;5051271;28;19932;-61
2022/09/12 09:43:18;;;;;;;;;;;22.90;97.90;;;;;;5046201;28;20324;-62
2022/09/12 09:45:45;;;;;;;;;;;22.90;97.90;;;;;;5043752;28;20300;-60
2022/09/12 09:48:14;;;;;;;;;;;22.90;97.90;;;;;;5049003;28;19928;-62
2022/09/12 09:50:47;;;;;;;;;;;22.90;97.90;;;;;;5048794;28;19929;-62
2022/09/12 09:53:26;;;;;;;;;;;22.90;97.80;;;;;;5042555;28;19929;-61
2022/09/12 09:55:55;;;;;;;;;;;22.90;97.90;;;;;;5049576;28;20290;-62
2022/09/12 09:58:29;;;;;;;;;;;22.90;97.90;;;;;;5047839;28;19925;-60
2022/09/12 10:00:57;;;;;;;;;;;22.90;97.80;;;;;;5042459;28;19948;-62
2022/09/12 10:03:28;;;;;;;;;;;22.90;97.70;;;;;;5045522;28;19943;-63
2022/09/12 10:05:57;;;;;;;;;;;22.90;97.70;;;;;;5051081;28;19933;-62
2022/09/12 10:08:26;;;;;;;;;;;22.90;97.70;;;;;;5045146;28;19929;-63
2022/09/12 10:10:54;;;;;;;;;;;22.90;97.60;;;;;;5045592;28;19929;-59
2022/09/12 10:13:27;;;;;;;;;;;22.80;97.30;;;;;;5044400;28;19932;-61
2022/09/12 10:15:56;;;;;;;;;;;22.90;97.40;;;;;;5038033;28;19929;-56
2022/09/12 10:18:34;;;;;;;;;;;22.90;97.30;;;;;;5029012;28;19929;-57
2022/09/12 10:21:10;;;;;;;;;;;23.00;99.90;;;;;;5045644;28;20024;-60
2022/09/12 10:23:39;;;;;;;;;;;23.00;99.90;;;;;;5044644;28;19935;-62
2022/09/12 10:26:12;;;;;;;;;;;23.10;99.90;;;;;;5025858;28;20324;-61
2022/09/12 10:28:57;;;;;;;;;;;23.10;99.90;;;;;;5050986;28;19931;-62
2022/09/12 10:31:32;;;;;;;;;;;23.10;99.90;;;;;;5045562;28;19925;-60
2022/09/12 10:34:00;;;;;;;;;;;23.10;99.90;;;;;;5046998;28;19929;-59
2022/09/12 10:36:37;;;;;;;;;;;23.10;99.90;;;;;;5050773;28;19929;-59
2022/09/12 10:39:04;;;;;;;;;;;23.10;99.90;;;;;;5038723;28;19929;-60
2022/09/12 10:41:39;;;;;;;;;;;23.10;99.90;;;;;;5042218;28;20331;-57
2022/09/12 10:44:08;;;;;;;;;;;23.10;99.90;;;;;;5029611;28;19936;-58
2022/09/12 10:46:35;;;;;;;;;;;23.10;99.90;;;;;;5028470;28;19940;-59
2022/09/12 10:49:21;;;;;;;;;;;23.10;99.90;;;;;;5030385;28;19925;-62
2022/09/12 10:51:49;;;;;;;;;;;23.10;99.90;;;;;;5044181;28;19975;-61
2022/09/12 10:54:18;;;;;;;;;;;23.10;99.90;;;;;;5042088;28;19948;-63
2022/09/12 10:56:48;;;;;;;;;;;23.10;99.90;;;;;;5047811;28;19947;-61
2022/09/12 10:59:24;;;;;;;;;;;23.20;99.90;;;;;;5041059;28;19936;-62
2022/09/12 11:01:58;;;;;;;;;;;23.20;99.90;;;;;;5030920;28;20408;-56
2022/09/12 11:04:44;;;;;;;;;;;23.20;99.90;;;;;;5048912;28;20410;-64
2022/09/12 11:07:21;;;;;;;;;;;23.20;99.90;;;;;;5054490;28;20004;-62
2022/09/12 11:09:55;;;;;;;;;;;23.20;99.90;;;;;;5046512;28;20351;-61
2022/09/12 11:12:41;;;;;;;;;;;23.30;99.90;;;;;;5043903;28;19928;-57
2022/09/12 11:15:13;;;;;;;;;;;23.30;99.90;;;;;;5042936;28;19955;-58
2022/09/12 11:17:53;;;;;;;;;;;23.40;99.90;;;;;;5046326;28;19936;-61
2022/09/12 11:20:26;;;;;;;;;;;23.40;99.90;;;;;;5042030;28;20280;-64
2022/09/12 11:22:56;;;;;;;;;;;23.40;99.90;;;;;;5040954;28;20543;-62
2022/09/12 11:25:29;;;;;;;;;;;23.50;99.90;;;;;;5048924;28;19928;-62
2022/09/12 11:28:23;;;;;;;;;;;23.50;99.90;;;;;;5040598;28;19936;-65
2022/09/12 11:31:01;;;;;;;;;;;23.50;99.90;;;;;;5045213;28;19932;-65
2022/09/12 11:33:34;;;;;;;;;;;23.50;99.90;;;;;;5056403;28;19925;-64
2022/09/12 11:36:12;;;;;;;;;;;23.50;99.90;;;;;;5044695;28;19929;-65
2022/09/12 11:38:42;;;;;;;;;;;23.50;99.90;;;;;;5049614;28;19935;-60
2022/09/12 11:41:10;;;;;;;;;;;23.60;99.90;;;;;;5047511;28;19926;-60
2022/09/12 11:43:40;;;;;;;;;;;23.50;99.90;;;;;;5043823;28;19932;-61
2022/09/12 11:46:26;;;;;;;;;;;23.50;99.90;;;;;;5045393;28;19936;-62
2022/09/12 11:49:00;;;;;;;;;;;23.50;99.90;;;;;;5044505;28;19929;-60
2022/09/12 11:51:43;;;;;;;;;;;23.50;99.90;;;;;;5046156;28;20392;-59
2022/09/12 11:54:11;;;;;;;;;;;23.40;99.90;;;;;;5048162;28;19925;-61
2022/09/12 11:56:41;;;;;;;;;;;23.40;99.90;;;;;;5025490;28;19929;-62
2022/09/12 11:59:13;;;;;;;;;;;23.40;99.90;;;;;;5046929;28;19952;-56
2022/09/12 12:01:43;;;;;;;;;;;23.40;99.90;;;;;;5027821;28;20308;-60
2022/09/12 12:04:16;;;;;;;;;;;23.40;99.90;;;;;;5043707;28;19952;-59
2022/09/12 12:06:55;;;;;;;;;;;23.40;99.90;;;;;;5048934;28;19929;-62
2022/09/12 12:09:22;;;;;;;;;;;23.40;99.90;;;;;;5047288;28;20296;-60
2022/09/12 12:11:52;;;;;;;;;;;23.30;99.90;;;;;;5044095;28;20332;-60
2022/09/12 12:14:37;;;;;;;;;;;23.40;99.90;;;;;;5047769;28;20528;-62
2022/09/12 12:17:11;;;;;;;;;;;23.30;99.90;;;;;;5046336;28;20003;-63
2022/09/12 12:19:38;;;;;;;;;;;23.30;99.90;;;;;;5046365;28;20340;-61
2022/09/12 12:22:19;;;;;;;;;;;23.40;99.90;;;;;;5045161;28;19947;-62
2022/09/12 12:25:12;;;;;;;;;;;23.30;99.90;;;;;;5041914;28;20293;-62
2022/09/12 12:27:50;;;;;;;;;;;23.30;99.90;;;;;;5023409;28;19924;-62
2022/09/12 12:30:29;;;;;;;;;;;23.30;99.90;;;;;;5048867;28;19936;-60
2022/09/12 12:33:12;;;;;;;;;;;23.30;99.90;;;;;;5056041;28;20400;-62
2022/09/12 12:35:45;;;;;;;;;;;23.30;99.90;;;;;;5051300;28;19929;-62
2022/09/12 12:38:51;;;;;;;;;;;23.30;99.90;;;;;;5052019;28;19928;-62
2022/09/12 12:41:18;;;;;;;;;;;23.30;99.90;;;;;;5011059;28;19933;-64
2022/09/12 12:43:50;;;;;;;;;;;23.30;99.90;;;;;;5002932;28;19926;-61
2022/09/12 12:46:28;;;;;;;;;;;23.30;99.90;;;;;;5011942;28;19937;-62
2022/09/12 12:49:05;;;;;;;;;;;23.30;99.90;;;;;;5000724;28;19926;-60
2022/09/12 12:51:41;;;;;;;;;;;23.30;99.90;;;;;;4996214;28;19970;-61
2022/09/12 12:54:28;;;;;;;;;;;23.30;99.90;;;;;;5000912;28;19926;-62
2022/09/12 12:57:15;;;;;;;;;;;23.40;99.90;;;;;;4998978;28;20409;-62
2022/09/12 13:00:08;;;;;;;;;;;23.40;99.90;;;;;;5003326;28;19926;-62
2022/09/12 13:02:39;;;;;;;;;;;23.40;99.90;;;;;;4986519;28;19952;-62
2022/09/12 13:05:16;;;;;;;;;;;23.40;99.90;;;;;;4997820;28;19975;-62
2022/09/12 13:07:43;;;;;;;;;;;23.40;99.90;;;;;;4990256;28;20446;-62
2022/09/12 13:10:22;;;;;;;;;;;23.40;99.90;;;;;;5004273;28;20316;-62
2022/09/12 13:12:49;;;;;;;;;;;23.50;99.90;;;;;;5020914;28;20396;-60
2022/09/12 13:15:34;;;;;;;;;;;23.50;99.90;;;;;;5048597;28;19940;-60
2022/09/12 13:18:04;;;;;;;;;;;23.50;99.90;;;;;;5042555;28;19952;-61
2022/09/12 13:20:33;;;;;;;;;;;23.50;99.90;;;;;;5046360;28;19937;-60
2022/09/12 13:23:00;;;;;;;;;;;23.60;99.90;;;;;;5047538;28;19929;-61
2022/09/12 13:25:34;;;;;;;;;;;23.60;99.90;;;;;;5043003;28;19948;-59
2022/09/12 13:28:01;;;;;;;;;;;23.60;99.90;;;;;;5024717;28;19941;-61
2022/09/12 13:30:33;;;;;;;;;;;23.60;99.90;;;;;;5047607;28;20451;-64
2022/09/12 13:33:07;;;;;;;;;;;23.60;99.90;;;;;;5047831;28;19925;-61
2022/09/12 13:35:46;;;;;;;;;;;23.70;99.90;;;;;;5030964;28;19928;-62
2022/09/12 13:38:16;;;;;;;;;;;23.70;99.90;;;;;;5045157;28;19967;-62
2022/09/12 13:40:55;;;;;;;;;;;23.70;99.90;;;;;;5030999;28;19925;-61
2022/09/12 13:43:34;;;;;;;;;;;23.80;99.90;;;;;;5046991;28;20389;-58
2022/09/12 13:46:01;;;;;;;;;;;23.90;99.90;;;;;;5050625;28;19931;-62
2022/09/12 13:48:28;;;;;;;;;;;23.90;99.90;;;;;;5050045;28;19933;-63
2022/09/12 13:50:57;;;;;;;;;;;23.90;99.90;;;;;;5048459;28;20312;-62
2022/09/12 13:53:30;;;;;;;;;;;24.00;99.90;;;;;;5047008;28;19929;-63
2022/09/12 13:55:58;;;;;;;;;;;24.00;99.90;;;;;;5047557;28;19935;-63
2022/09/12 13:58:26;;;;;;;;;;;24.10;99.90;;;;;;5047999;28;19932;-63
2022/09/12 14:00:59;;;;;;;;;;;24.10;99.90;;;;;;5047599;28;20408;-62
2022/09/12 14:06:23;;;;;;;;;;;24.20;99.90;;;;;;5041256;28;19933;-62
2022/09/12 14:08:51;;;;;;;;;;;24.20;99.90;;;;;;5048118;28;19925;-61
2022/09/12 14:11:23;;;;;;;;;;;24.30;99.90;;;;;;5041957;28;19925;-62
2022/09/12 14:13:51;;;;;;;;;;;24.30;99.90;;;;;;5041023;28;19929;-60
2022/09/12 14:16:20;;;;;;;;;;;24.30;99.90;;;;;;5042227;28;20389;-62
2022/09/12 14:18:47;;;;;;;;;;;24.30;99.90;;;;;;5031575;28;19947;-60
2022/09/12 14:21:26;;;;;;;;;;;24.30;99.90;;;;;;5048627;28;19936;-61
2022/09/12 14:23:53;;;;;;;;;;;24.40;99.90;;;;;;5030292;28;20304;-63
2022/09/12 14:26:22;;;;;;;;;;;24.40;99.90;;;;;;5040283;28;19936;-61
2022/09/12 14:28:49;;;;;;;;;;;24.30;99.90;;;;;;5041711;28;19928;-62
2022/09/12 14:31:22;;;;;;;;;;;24.30;99.90;;;;;;5047033;28;19935;-62
2022/09/12 14:33:50;;;;;;;;;;;24.30;99.90;;;;;;5047370;28;19935;-61
2022/09/12 14:36:32;;;;;;;;;;;24.30;99.90;;;;;;5041678;28;19929;-63
2022/09/12 14:39:01;;;;;;;;;;;24.30;99.90;;;;;;5047394;28;19925;-64
2022/09/12 14:41:29;;;;;;;;;;;24.30;99.90;;;;;;5042803;28;19944;-62